createdAt,value
2018-09-27T00:02:26.838Z,51.36
2018-09-27T00:04:55.365Z,51.41
2018-09-27T00:07:23.948Z,51.48
2018-09-27T00:09:52.437Z,52.08
2018-09-27T00:12:21.005Z,51.81
2018-09-27T00:14:49.558Z,51.91
2018-09-27T00:17:18.165Z,51.73
2018-09-27T00:19:46.736Z,51.93
2018-09-27T00:22:15.356Z,51.61
2018-09-27T00:24:43.977Z,51.54
2018-09-27T00:27:12.551Z,51.79
2018-09-27T00:29:41.104Z,52.21
2018-09-27T00:32:09.772Z,52.54
2018-09-27T00:34:38.507Z,52.34
2018-09-27T00:37:07.055Z,52.51
2018-09-27T00:39:35.581Z,52.59
2018-09-27T00:42:04.179Z,52.90
2018-09-27T00:44:32.707Z,53.01
2018-09-27T00:47:01.332Z,52.67
2018-09-27T00:49:29.956Z,53.00
2018-09-27T00:51:58.591Z,52.83
2018-09-27T00:54:27.056Z,52.65
2018-09-27T00:56:55.623Z,52.78
2018-09-27T00:59:24.213Z,52.76
2018-09-27T01:01:52.769Z,52.21
2018-09-27T01:04:21.293Z,52.83
2018-09-27T01:06:49.843Z,52.76
2018-09-27T01:09:18.354Z,52.59
2018-09-27T01:11:46.935Z,52.67
2018-09-27T01:14:15.552Z,52.36
2018-09-27T01:16:44.196Z,52.50
2018-09-27T01:19:12.853Z,52.87
2018-09-27T01:21:41.544Z,52.46
2018-09-27T01:24:10.079Z,52.64
2018-09-27T01:26:38.600Z,52.83
2018-09-27T01:29:07.093Z,52.59
2018-09-27T01:31:35.694Z,52.80
2018-09-27T01:34:04.322Z,52.67
2018-09-27T01:36:32.973Z,52.95
2018-09-27T01:39:01.577Z,53.20
2018-09-27T01:41:30.099Z,52.95
2018-09-27T01:43:58.627Z,53.12
2018-09-27T01:46:27.206Z,52.96
2018-09-27T01:48:55.852Z,52.97
2018-09-27T01:51:24.422Z,52.85
2018-09-27T01:53:52.883Z,53.05
2018-09-27T01:56:21.432Z,52.88
2018-09-27T01:58:49.965Z,53.20
2018-09-27T02:01:18.455Z,52.99
2018-09-27T02:03:46.936Z,53.24
2018-09-27T02:06:15.378Z,53.53
2018-09-27T02:08:43.876Z,52.91
2018-09-27T02:11:12.584Z,53.24
2018-09-27T02:13:41.239Z,53.35
2018-09-27T02:16:09.832Z,53.29
2018-09-27T02:18:38.381Z,53.09
2018-09-27T02:21:07.043Z,53.13
2018-09-27T02:23:36.082Z,53.58
2018-09-27T02:26:04.736Z,53.52
2018-09-27T02:28:33.384Z,53.74
2018-09-27T02:31:01.970Z,53.55
2018-09-27T02:33:30.577Z,53.34
2018-09-27T02:35:59.160Z,53.53
2018-09-27T02:38:27.924Z,53.62
2018-09-27T02:40:56.464Z,53.74
2018-09-27T02:43:24.985Z,53.93
2018-09-27T02:45:53.486Z,53.58
2018-09-27T02:48:22.008Z,54.31
2018-09-27T02:50:50.598Z,54.26
2018-09-27T02:53:19.152Z,53.86
2018-09-27T02:55:47.608Z,54.45
2018-09-27T02:58:16.130Z,54.42
2018-09-27T03:00:44.701Z,54.18
2018-09-27T03:03:13.349Z,54.46
2018-09-27T03:05:41.877Z,54.11
2018-09-27T03:08:10.447Z,54.10
2018-09-27T03:10:38.936Z,54.16
2018-09-27T03:13:07.403Z,54.58
2018-09-27T03:15:35.879Z,54.39
2018-09-27T03:18:04.390Z,53.97
2018-09-27T03:20:32.950Z,54.17
2018-09-27T03:23:01.482Z,54.02
2018-09-27T03:25:30.058Z,54.22
2018-09-27T03:27:58.693Z,54.43
2018-09-27T03:30:27.169Z,54.49
2018-09-27T03:35:29.504Z,54.52
2018-09-27T03:37:58.149Z,55.16
2018-09-27T03:40:26.802Z,54.86
2018-09-27T03:42:55.300Z,54.83
2018-09-27T03:45:23.820Z,54.51
2018-09-27T03:47:52.325Z,54.59
2018-09-27T03:50:20.823Z,54.88
2018-09-27T03:52:49.318Z,55.00
2018-09-27T03:55:17.832Z,54.93
2018-09-27T03:57:46.333Z,54.99
2018-09-27T04:00:14.812Z,55.43
2018-09-27T04:02:43.417Z,55.57
2018-09-27T04:05:11.941Z,55.50
2018-09-27T04:07:40.532Z,55.31
2018-09-27T04:10:09.107Z,55.32
2018-09-27T04:12:38.071Z,54.98
2018-09-27T04:15:06.624Z,55.08
2018-09-27T04:17:35.186Z,55.26
2018-09-27T04:20:03.689Z,54.84
2018-09-27T04:22:32.222Z,55.41
2018-09-27T04:25:00.768Z,55.49
2018-09-27T04:27:29.297Z,55.25
2018-09-27T04:29:57.795Z,55.16
2018-09-27T04:32:26.378Z,55.20
2018-09-27T04:34:55.078Z,55.17
2018-09-27T04:37:23.722Z,54.88
2018-09-27T04:39:52.342Z,55.28
2018-09-27T04:42:20.964Z,55.30
2018-09-27T04:44:49.483Z,55.28
2018-09-27T04:47:18.471Z,55.62
2018-09-27T04:49:47.056Z,55.27
2018-09-27T04:52:15.693Z,55.66
2018-09-27T04:54:44.481Z,55.54
2018-09-27T04:57:13.141Z,55.55
2018-09-27T04:59:42.238Z,55.58
2018-09-27T05:02:11.059Z,54.95
2018-09-27T05:04:39.712Z,55.38
2018-09-27T05:07:08.424Z,55.39
2018-09-27T05:09:37.239Z,55.38
2018-09-27T05:12:05.931Z,55.35
2018-09-27T05:14:34.610Z,55.67
2018-09-27T05:17:03.286Z,55.40
2018-09-27T05:19:31.955Z,55.36
2018-09-27T05:22:00.603Z,55.50
2018-09-27T05:24:29.273Z,55.65
2018-09-27T05:26:57.951Z,55.44
2018-09-27T05:29:26.594Z,55.52
2018-09-27T05:31:55.382Z,55.67
2018-09-27T05:34:24.185Z,55.62
2018-09-27T05:36:53.384Z,55.68
2018-09-27T05:39:22.194Z,55.38
2018-09-27T05:41:53.241Z,55.72
2018-09-27T05:44:22.103Z,55.80
2018-09-27T05:46:50.954Z,55.71
2018-09-27T05:49:19.717Z,55.66
2018-09-27T05:51:48.452Z,55.78
2018-09-27T05:54:17.222Z,56.00
2018-09-27T05:56:45.893Z,55.66
2018-09-27T05:59:14.883Z,55.62
2018-09-27T06:01:43.634Z,55.72
2018-09-27T06:04:12.483Z,55.68
2018-09-27T06:06:41.217Z,55.70
2018-09-27T06:09:11.935Z,55.60
2018-09-27T06:11:49.102Z,55.35
2018-09-27T06:14:17.896Z,55.36
2018-09-27T06:16:46.890Z,55.51
2018-09-27T06:19:15.712Z,55.19
2018-09-27T06:21:44.500Z,55.27
2018-09-27T06:24:13.217Z,55.02
2018-09-27T06:26:42.571Z,53.90
2018-09-27T06:29:11.183Z,52.85
2018-09-27T06:31:39.898Z,52.06
2018-09-27T06:34:08.609Z,50.05
2018-09-27T06:36:37.245Z,48.63
2018-09-27T06:39:08.160Z,47.11
2018-09-27T06:41:36.770Z,47.15
2018-09-27T06:44:05.427Z,45.87
2018-09-27T06:46:33.957Z,44.01
2018-09-27T06:49:02.673Z,42.66
2018-09-27T06:51:31.495Z,42.08
2018-09-27T06:54:00.134Z,41.31
2018-09-27T06:56:28.846Z,40.38
2018-09-27T06:58:57.533Z,40.19
2018-09-27T07:01:26.252Z,38.96
2018-09-27T07:03:55.086Z,37.76
2018-09-27T07:06:23.810Z,38.00
2018-09-27T07:08:52.384Z,35.75
2018-09-27T07:11:20.951Z,35.54
2018-09-27T07:13:49.542Z,34.41
2018-09-27T07:16:18.120Z,33.26
2018-09-27T07:18:46.845Z,32.36
2018-09-27T07:21:15.480Z,31.48
2018-09-27T07:23:44.122Z,31.41
2018-09-27T07:26:12.955Z,31.22
2018-09-27T07:28:41.790Z,29.73
2018-09-27T07:31:10.449Z,29.44
2018-09-27T07:33:38.943Z,29.73
2018-09-27T07:36:07.527Z,28.42
2018-09-27T07:38:36.181Z,28.23
2018-09-27T07:41:04.713Z,27.76
2018-09-27T07:43:33.245Z,26.62
2018-09-27T07:46:01.840Z,26.26
2018-09-27T07:48:30.500Z,26.66
2018-09-27T07:50:59.281Z,26.70
2018-09-27T07:53:28.462Z,25.60
2018-09-27T07:55:57.103Z,25.39
2018-09-27T07:58:25.742Z,24.44
2018-09-27T08:00:55.528Z,23.72
2018-09-27T08:03:24.261Z,23.85
2018-09-27T08:05:53.077Z,23.29
2018-09-27T08:08:21.748Z,22.59
2018-09-27T08:10:50.486Z,22.33
2018-09-27T08:13:19.112Z,22.18
2018-09-27T08:15:47.811Z,22.73
2018-09-27T08:18:16.439Z,21.08
2018-09-27T08:20:45.337Z,20.51
2018-09-27T08:23:13.732Z,19.83
2018-09-27T08:25:42.732Z,19.50
2018-09-27T08:28:11.452Z,18.68
2018-09-27T08:30:41.058Z,19.55
2018-09-27T08:33:10.241Z,17.85
2018-09-27T08:35:38.994Z,18.40
2018-09-27T08:38:07.684Z,17.72
2018-09-27T08:40:36.355Z,16.61
2018-09-27T08:43:04.989Z,17.12
2018-09-27T08:45:33.648Z,16.12
2018-09-27T08:48:02.072Z,15.94
2018-09-27T08:50:30.648Z,15.53
2018-09-27T08:52:59.464Z,14.94
2018-09-27T08:55:28.171Z,14.67
2018-09-27T08:57:56.787Z,14.61
2018-09-27T09:00:25.576Z,13.88
2018-09-27T09:02:54.153Z,13.80
2018-09-27T09:05:22.696Z,13.41
2018-09-27T09:07:51.505Z,12.82
2018-09-27T09:10:20.226Z,12.40
2018-09-27T09:12:48.783Z,11.91
2018-09-27T09:15:17.401Z,11.78
2018-09-27T09:17:46.098Z,11.41
2018-09-27T09:20:14.764Z,10.52
2018-09-27T09:22:43.469Z,10.50
2018-09-27T09:25:12.172Z,9.69
2018-09-27T09:27:40.787Z,9.43
2018-09-27T09:30:10.456Z,9.15
2018-09-27T09:32:39.128Z,8.91
2018-09-27T09:35:07.709Z,7.97
2018-09-27T09:37:36.326Z,7.39
2018-09-27T09:40:04.928Z,7.77
2018-09-27T09:42:33.581Z,7.36
2018-09-27T09:45:02.134Z,7.08
2018-09-27T09:47:30.692Z,7.70
2018-09-27T09:49:59.232Z,6.53
2018-09-27T09:52:27.863Z,5.97
2018-09-27T09:54:56.432Z,5.88
2018-09-27T09:57:25.143Z,5.72
2018-09-27T09:59:53.721Z,6.62
2018-09-27T10:02:22.435Z,6.45
2018-09-27T10:04:51.120Z,5.47
2018-09-27T10:07:19.703Z,5.27
2018-09-27T10:09:48.333Z,5.37
2018-09-27T10:12:16.964Z,5.08
2018-09-27T10:14:45.532Z,5.55
2018-09-27T10:17:14.156Z,5.07
2018-09-27T10:19:42.732Z,5.07
2018-09-27T10:22:11.509Z,4.89
2018-09-27T10:24:40.094Z,4.95
2018-09-27T10:27:08.786Z,4.27
2018-09-27T10:29:37.375Z,4.43
2018-09-27T10:32:06.055Z,4.70
2018-09-27T10:34:34.745Z,4.82
2018-09-27T10:37:03.516Z,4.94
2018-09-27T10:39:32.135Z,4.11
2018-09-27T10:42:00.661Z,4.13
2018-09-27T10:44:29.286Z,3.29
2018-09-27T10:46:57.910Z,3.59
2018-09-27T10:49:26.438Z,4.58
2018-09-27T10:51:55.108Z,4.48
2018-09-27T10:54:23.829Z,3.68
2018-09-27T10:56:52.566Z,3.09
2018-09-27T10:59:21.128Z,3.24
2018-09-27T11:01:50.231Z,3.02
2018-09-27T11:04:18.836Z,3.91
2018-09-27T11:06:47.386Z,3.38
2018-09-27T11:09:16.133Z,3.54
2018-09-27T11:11:44.939Z,2.76
2018-09-27T11:14:13.513Z,2.41
2018-09-27T11:16:42.292Z,2.82
2018-09-27T11:19:10.809Z,3.36
2018-09-27T11:21:39.445Z,2.92
2018-09-27T11:24:07.979Z,2.82
2018-09-27T11:26:36.557Z,3.53
2018-09-27T11:29:10.606Z,2.91
2018-09-27T11:31:44.319Z,3.04
2018-09-27T11:34:12.883Z,3.13
2018-09-27T11:36:41.574Z,2.82
2018-09-27T11:39:11.027Z,2.81
2018-09-27T11:41:39.606Z,1.94
2018-09-27T11:44:08.469Z,2.20
2018-09-27T11:46:36.925Z,2.13
2018-09-27T11:49:05.664Z,1.99
2018-09-27T11:51:34.122Z,1.85
2018-09-27T11:54:03.013Z,2.88
2018-09-27T11:56:31.611Z,3.61
2018-09-27T11:59:00.244Z,3.35
2018-09-27T12:01:28.866Z,3.24
2018-09-27T12:03:57.764Z,3.59
2018-09-27T12:06:26.298Z,4.80
2018-09-27T12:08:57.011Z,5.70
2018-09-27T12:11:25.644Z,6.49
2018-09-27T12:13:54.247Z,7.83
2018-09-27T12:16:22.944Z,8.75
2018-09-27T12:18:52.756Z,9.10
2018-09-27T12:21:21.371Z,10.47
2018-09-27T12:23:50.028Z,11.22
2018-09-27T12:26:18.670Z,12.36
2018-09-27T12:28:48.167Z,13.18
2018-09-27T12:31:16.922Z,13.64
2018-09-27T12:33:45.609Z,13.52
2018-09-27T12:36:14.090Z,14.88
2018-09-27T12:38:42.802Z,14.46
2018-09-27T12:41:11.333Z,15.88
2018-09-27T12:43:40.014Z,14.74
2018-09-27T12:46:09.192Z,15.75
2018-09-27T12:48:37.831Z,16.33
2018-09-27T12:51:06.601Z,15.68
2018-09-27T12:53:35.140Z,15.11
2018-09-27T12:56:04.229Z,15.94
2018-09-27T12:58:32.885Z,14.92
2018-09-27T13:01:01.781Z,16.25
2018-09-27T13:03:32.429Z,16.50
2018-09-27T13:06:01.144Z,16.15
2018-09-27T13:08:29.913Z,16.16
2018-09-27T13:10:58.547Z,15.81
2018-09-27T13:13:27.159Z,16.03
2018-09-27T13:15:55.908Z,16.03
2018-09-27T13:18:25.644Z,16.47
2018-09-27T13:20:54.167Z,16.33
2018-09-27T13:23:22.753Z,16.64
2018-09-27T13:25:51.422Z,16.42
2018-09-27T13:28:20.035Z,16.53
2018-09-27T13:30:48.639Z,16.70
2018-09-27T13:33:17.374Z,16.93
2018-09-27T13:35:46.022Z,17.08
2018-09-27T13:38:14.515Z,16.65
2018-09-27T13:40:43.028Z,16.49
2018-09-27T13:43:11.736Z,16.23
2018-09-27T13:45:40.232Z,16.38
2018-09-27T13:48:08.841Z,16.44
2018-09-27T13:50:37.539Z,16.34
2018-09-27T13:53:06.261Z,16.18
2018-09-27T13:55:34.874Z,16.82
2018-09-27T13:58:03.468Z,16.20
2018-09-27T14:00:32.053Z,16.39
2018-09-27T14:03:00.675Z,15.59
2018-09-27T14:05:29.349Z,16.55
2018-09-27T14:07:57.907Z,15.92
2018-09-27T14:10:26.521Z,15.85
2018-09-27T14:12:55.104Z,16.00
2018-09-27T14:15:23.777Z,16.09
2018-09-27T14:17:52.337Z,16.36
2018-09-27T14:20:20.971Z,15.65
2018-09-27T14:22:49.513Z,15.99
2018-09-27T14:25:18.007Z,16.58
2018-09-27T14:27:46.561Z,16.51
2018-09-27T14:30:15.125Z,16.03
2018-09-27T14:32:43.665Z,16.78
2018-09-27T14:35:12.279Z,16.74
2018-09-27T14:37:40.799Z,17.31
2018-09-27T14:40:09.384Z,16.87
2018-09-27T14:42:37.958Z,16.39
2018-09-27T14:45:06.684Z,17.10
2018-09-27T14:47:35.368Z,16.63
2018-09-27T14:50:03.927Z,17.19
2018-09-27T14:52:32.586Z,16.72
2018-09-27T14:55:01.141Z,17.78
2018-09-27T14:57:29.728Z,17.25
2018-09-27T14:59:58.443Z,17.13
2018-09-27T15:02:27.010Z,17.93
2018-09-27T15:04:55.576Z,18.11
2018-09-27T15:07:24.165Z,17.35
2018-09-27T15:09:52.774Z,18.43
2018-09-27T15:12:21.239Z,18.41
2018-09-27T15:14:49.825Z,18.55
2018-09-27T15:17:18.402Z,18.14
2018-09-27T15:19:47.044Z,18.62
2018-09-27T15:22:16.160Z,18.31
2018-09-27T15:24:44.843Z,18.66
2018-09-27T15:27:13.485Z,18.60
2018-09-27T15:29:42.176Z,19.32
2018-09-27T15:32:10.939Z,18.73
2018-09-27T15:34:39.778Z,19.78
2018-09-27T15:37:08.436Z,19.97
2018-09-27T15:39:37.250Z,20.13
2018-09-27T15:42:05.833Z,20.44
2018-09-27T15:44:34.652Z,19.65
2018-09-27T15:47:03.479Z,20.93
2018-09-27T15:49:32.269Z,20.80
2018-09-27T15:52:00.950Z,20.93
2018-09-27T15:54:29.776Z,20.84
2018-09-27T15:56:58.395Z,21.03
2018-09-27T15:59:27.075Z,21.27
2018-09-27T16:01:55.745Z,20.99
2018-09-27T16:04:24.415Z,21.36
2018-09-27T16:06:53.147Z,22.18
2018-09-27T16:09:22.156Z,21.74
2018-09-27T16:11:52.107Z,22.58
2018-09-27T16:14:20.768Z,22.32
2018-09-27T16:16:49.748Z,22.36
2018-09-27T16:19:18.550Z,23.16
2018-09-27T16:21:49.263Z,23.39
2018-09-27T16:27:13.580Z,23.84
2018-09-27T16:29:42.943Z,23.43
2018-09-27T16:32:11.700Z,23.63
2018-09-27T16:34:40.499Z,24.38
2018-09-27T16:39:56.440Z,24.79
2018-09-27T16:42:25.597Z,24.34
2018-09-27T16:44:54.286Z,24.90
2018-09-27T16:47:23.216Z,24.54
2018-09-27T16:49:53.291Z,24.75
2018-09-27T16:52:23.029Z,25.35
2018-09-27T16:54:51.653Z,26.35
2018-09-27T16:57:20.511Z,26.69
2018-09-27T16:59:54.253Z,26.70
2018-09-27T17:02:23.487Z,27.69
2018-09-27T17:04:53.187Z,28.12
2018-09-27T17:07:22.393Z,28.43
2018-09-27T17:09:51.271Z,28.39
2018-09-27T17:12:20.198Z,28.62
2018-09-27T17:14:48.941Z,29.32
2018-09-27T17:17:17.761Z,30.32
2018-09-27T17:19:46.602Z,30.49
2018-09-27T17:22:15.395Z,30.04
2018-09-27T17:24:44.275Z,30.96
2018-09-27T17:27:12.773Z,30.56
2018-09-27T17:29:41.787Z,30.87
2018-09-27T17:32:10.571Z,30.89
2018-09-27T17:34:39.219Z,30.94
2018-09-27T17:37:08.054Z,31.47
2018-09-27T17:39:36.601Z,32.25
2018-09-27T17:42:05.231Z,31.94
2018-09-27T17:44:33.838Z,32.28
2018-09-27T17:47:02.353Z,32.53
2018-09-27T17:49:30.994Z,32.82
2018-09-27T17:51:59.516Z,33.33
2018-09-27T17:54:27.995Z,34.08
2018-09-27T17:56:56.760Z,33.61
2018-09-27T17:59:25.239Z,34.37
2018-09-27T18:01:53.832Z,34.62
2018-09-27T18:04:22.338Z,34.84
2018-09-27T18:06:51.012Z,34.90
2018-09-27T18:09:19.554Z,34.34
2018-09-27T18:11:48.047Z,34.83
2018-09-27T18:14:16.518Z,35.53
2018-09-27T18:16:45.493Z,34.92
2018-09-27T18:19:16.361Z,35.02
2018-09-27T18:21:45.365Z,35.39
2018-09-27T18:24:14.349Z,35.63
2018-09-27T18:26:43.297Z,36.53
2018-09-27T18:29:12.161Z,36.12
2018-09-27T18:31:41.156Z,36.03
2018-09-27T18:34:10.128Z,36.24
2018-09-27T18:36:39.058Z,36.87
2018-09-27T18:39:09.954Z,37.33
2018-09-27T18:41:39.060Z,36.87
2018-09-27T18:44:08.633Z,37.89
2018-09-27T18:46:37.930Z,37.73
2018-09-27T18:49:07.012Z,37.39
2018-09-27T18:51:36.429Z,37.55
2018-09-27T18:54:09.465Z,37.67
2018-09-27T18:56:38.132Z,37.51
2018-09-27T18:59:06.836Z,37.79
2018-09-27T19:01:35.525Z,38.63
2018-09-27T19:04:04.121Z,39.02
2018-09-27T19:06:32.711Z,39.11
2018-09-27T19:09:01.649Z,39.50
2018-09-27T19:11:30.493Z,39.49
2018-09-27T19:13:59.145Z,39.35
2018-09-27T19:16:27.787Z,39.78
2018-09-27T19:18:57.243Z,39.47
2018-09-27T19:21:25.920Z,39.91
2018-09-27T19:23:54.621Z,39.71
2018-09-27T19:26:23.251Z,39.89
2018-09-27T19:28:51.837Z,40.53
2018-09-27T19:31:20.804Z,40.57
2018-09-27T19:33:49.738Z,40.69
2018-09-27T19:36:18.836Z,40.69
2018-09-27T19:38:47.395Z,40.95
2018-09-27T19:41:15.940Z,41.10
2018-09-27T19:43:44.529Z,41.24
2018-09-27T19:46:13.148Z,40.84
2018-09-27T19:48:41.805Z,41.62
2018-09-27T19:51:10.436Z,42.00
2018-09-27T19:53:39.061Z,41.95
2018-09-27T19:56:08.047Z,41.73
2018-09-27T19:58:36.657Z,41.70
2018-09-27T20:01:05.111Z,42.54
2018-09-27T20:03:33.740Z,42.85
2018-09-27T20:06:02.383Z,42.38
2018-09-27T20:08:31.191Z,43.00
2018-09-27T20:10:59.680Z,43.32
2018-09-27T20:13:28.329Z,43.34
2018-09-27T20:15:58.111Z,43.62
2018-09-27T20:18:26.652Z,43.48
2018-09-27T20:20:55.219Z,44.08
2018-09-27T20:23:23.804Z,44.12
2018-09-27T20:25:52.510Z,44.01
2018-09-27T20:28:21.071Z,44.19
2018-09-27T20:30:49.590Z,45.06
2018-09-27T20:33:18.111Z,44.51
2018-09-27T20:35:46.569Z,44.52
2018-09-27T20:38:15.011Z,45.31
2018-09-27T20:40:43.449Z,45.22
2018-09-27T20:43:16.577Z,44.95
2018-09-27T20:45:45.991Z,45.95
2018-09-27T20:48:14.800Z,45.97
2018-09-27T20:50:45.272Z,45.70
2018-09-27T20:53:14.984Z,45.73
2018-09-27T20:55:44.374Z,45.89
2018-09-27T20:58:13.264Z,46.29
2018-09-27T21:00:41.753Z,46.10
2018-09-27T21:03:10.222Z,46.30
2018-09-27T21:05:38.699Z,46.94
2018-09-27T21:08:07.208Z,46.98
2018-09-27T21:10:36.917Z,46.94
2018-09-27T21:13:07.381Z,47.58
2018-09-27T21:15:36.371Z,47.08
2018-09-27T21:18:04.907Z,47.00
2018-09-27T21:20:33.387Z,47.44
2018-09-27T21:23:02.438Z,47.69
2018-09-27T21:25:31.870Z,47.94
2018-09-27T21:28:00.401Z,48.44
2018-09-27T21:30:28.974Z,47.81
2018-09-27T21:32:57.644Z,48.64
2018-09-27T21:35:26.163Z,48.64
2018-09-27T21:37:54.765Z,48.44
2018-09-27T21:40:23.311Z,48.05
2018-09-27T21:42:51.892Z,48.19
2018-09-27T21:45:20.511Z,49.02
2018-09-27T21:47:49.103Z,48.14
2018-09-27T21:50:17.868Z,49.29
2018-09-27T21:52:46.483Z,48.58
2018-09-27T21:55:15.113Z,49.42
2018-09-27T21:57:43.596Z,49.71
2018-09-27T22:00:12.136Z,49.01
2018-09-27T22:02:40.791Z,49.77
2018-09-27T22:05:09.349Z,49.11
2018-09-27T22:07:37.916Z,49.68
2018-09-27T22:10:06.532Z,49.55
2018-09-27T22:12:35.055Z,49.98
2018-09-27T22:15:03.563Z,49.43
2018-09-27T22:17:32.035Z,50.37
2018-09-27T22:20:00.510Z,50.01
2018-09-27T22:22:28.983Z,49.82
2018-09-27T22:24:57.852Z,50.49
2018-09-27T22:27:26.299Z,50.00
2018-09-27T22:29:54.757Z,50.64
2018-09-27T22:32:23.306Z,50.65
2018-09-27T22:34:52.864Z,50.52
2018-09-27T22:37:21.332Z,50.90
2018-09-27T22:39:50.332Z,51.58
2018-09-27T22:42:19.095Z,51.30
2018-09-27T22:44:47.919Z,51.55
2018-09-27T22:47:16.699Z,51.89
2018-09-27T22:49:45.409Z,51.55
2018-09-27T22:52:14.109Z,51.67
2018-09-27T22:54:42.884Z,51.57
2018-09-27T22:57:11.712Z,51.37
2018-09-27T22:59:40.598Z,51.41
2018-09-27T23:02:09.425Z,51.98
2018-09-27T23:04:38.464Z,51.70
2018-09-27T23:07:07.366Z,52.24
2018-09-27T23:09:36.359Z,52.25
2018-09-27T23:12:05.503Z,51.88
2018-09-27T23:14:34.463Z,52.52
2018-09-27T23:17:03.347Z,51.98
2018-09-27T23:19:32.230Z,52.97
2018-09-27T23:22:00.864Z,52.61
2018-09-27T23:24:29.523Z,53.03
2018-09-27T23:26:58.211Z,53.32
2018-09-27T23:29:26.900Z,53.04
2018-09-27T23:31:55.533Z,52.89
2018-09-27T23:34:24.268Z,53.78
2018-09-27T23:36:53.053Z,53.00
2018-09-27T23:39:21.779Z,53.38
2018-09-27T23:41:50.438Z,53.71
2018-09-27T23:44:19.336Z,53.38
2018-09-27T23:46:48.020Z,53.60
2018-09-27T23:49:16.726Z,53.71
2018-09-27T23:51:45.505Z,54.27
2018-09-27T23:54:14.195Z,53.73
2018-09-27T23:56:42.802Z,53.76
2018-09-27T23:59:11.442Z,54.14
